createdAt,value
2019-01-24T00:00:01.026Z,4.2
2019-01-24T00:05:01.192Z,4.2
2019-01-24T00:10:01.052Z,4.6
2019-01-24T00:15:01.484Z,4.6
2019-01-24T00:20:01.015Z,4.8
2019-01-24T00:25:01.016Z,4.8
2019-01-24T00:30:01.020Z,5.1
2019-01-24T00:40:01.165Z,5.3
2019-01-24T00:45:01.098Z,5.4
2019-01-24T00:50:01.038Z,5.9
2019-01-24T00:55:01.163Z,6.2
2019-01-24T01:00:01.060Z,6.3
2019-01-24T01:05:01.097Z,6.4
2019-01-24T01:10:02.246Z,6.7
2019-01-24T01:15:01.093Z,6.8
2019-01-24T01:20:06.224Z,8.0
2019-01-24T01:25:01.038Z,7.9
2019-01-24T01:30:01.044Z,9.8
2019-01-24T01:35:01.040Z,9.6
2019-01-24T01:40:01.035Z,10.3
2019-01-24T01:45:01.126Z,10.2
2019-01-24T01:50:01.084Z,11.0
2019-01-24T01:55:01.181Z,11.0
2019-01-24T02:00:01.078Z,11.6
2019-01-24T02:05:01.120Z,11.7
2019-01-24T02:10:01.063Z,13.0
2019-01-24T02:15:02.342Z,13.5
2019-01-24T02:20:01.076Z,13.7
2019-01-24T02:25:01.209Z,12.9
2019-01-24T02:30:06.090Z,13.3
2019-01-24T02:35:01.141Z,13.3
2019-01-24T02:40:01.073Z,14.4
2019-01-24T02:45:01.140Z,14.2
2019-01-24T02:50:01.078Z,14.9
2019-01-24T02:55:01.292Z,14.9
2019-01-24T03:00:01.102Z,14.1
2019-01-24T03:05:01.157Z,14.3
2019-01-24T03:10:01.117Z,14.0
2019-01-24T03:15:06.176Z,13.9
2019-01-24T03:20:02.307Z,14.1
2019-01-24T03:30:01.164Z,14.6
2019-01-24T03:35:04.733Z,16.1
2019-01-24T03:40:01.097Z,16.3
2019-01-24T03:45:01.171Z,16.3
2019-01-24T03:50:01.076Z,14.8
2019-01-24T03:55:01.195Z,14.9
2019-01-24T04:00:01.119Z,16.9
2019-01-24T04:05:01.178Z,16.3
2019-01-24T04:10:01.121Z,16.3
2019-01-24T04:15:01.178Z,16.2
2019-01-24T04:20:01.122Z,15.6
2019-01-24T04:25:01.250Z,15.3
2019-01-24T04:30:01.124Z,16.9
2019-01-24T04:35:01.316Z,16.6
2019-01-24T04:40:01.148Z,17.1
2019-01-24T04:45:01.266Z,17.5
2019-01-24T04:50:01.151Z,15.5
2019-01-24T04:55:01.127Z,16.0
2019-01-24T05:00:01.132Z,16.7
2019-01-24T05:05:01.205Z,15.8
2019-01-24T05:15:01.201Z,15.7
2019-01-24T05:25:01.211Z,17.6
2019-01-24T05:30:01.142Z,19.3
2019-01-24T05:35:01.290Z,19.5
2019-01-24T05:40:01.152Z,19.4
2019-01-24T05:45:01.242Z,19.3
2019-01-24T05:50:01.154Z,18.6
2019-01-24T05:55:01.250Z,18.4
2019-01-24T06:00:01.184Z,16.8
2019-01-24T06:05:01.219Z,17.1
2019-01-24T06:10:01.160Z,15.8
2019-01-24T06:15:01.286Z,16.0
2019-01-24T06:20:01.164Z,16.5
2019-01-24T06:25:01.232Z,16.9
2019-01-24T06:30:01.171Z,17.5
2019-01-24T06:35:01.200Z,16.9
2019-01-24T06:40:01.197Z,15.8
2019-01-24T06:45:01.172Z,15.7
2019-01-24T06:50:01.168Z,14.8
2019-01-24T06:55:01.270Z,14.4
2019-01-24T07:00:01.209Z,14.4
2019-01-24T07:05:01.265Z,14.2
2019-01-24T07:10:01.180Z,13.7
2019-01-24T07:15:02.452Z,14.0
2019-01-24T07:20:01.186Z,13.0
2019-01-24T07:30:01.314Z,13.5
2019-01-24T07:35:01.194Z,14.1
2019-01-24T07:40:01.191Z,13.8
2019-01-24T07:45:01.344Z,14.5
2019-01-24T07:50:01.322Z,14.6
2019-01-24T08:00:01.335Z,13.4
2019-01-24T08:05:01.263Z,12.9
2019-01-24T08:10:01.205Z,13.0
2019-01-24T08:15:01.303Z,12.9
2019-01-24T08:20:01.231Z,13.4
2019-01-24T08:25:01.287Z,13.5
2019-01-24T08:30:01.226Z,13.9
2019-01-24T08:35:01.292Z,14.0
2019-01-24T08:40:01.344Z,14.1
2019-01-24T08:45:01.347Z,14.3
2019-01-24T08:50:01.225Z,14.6
2019-01-24T08:55:01.353Z,15.6
2019-01-24T09:00:01.225Z,15.7
2019-01-24T09:05:01.229Z,16.1
2019-01-24T09:10:01.319Z,17.7
2019-01-24T09:15:01.487Z,17.0
2019-01-24T09:20:01.263Z,18.0
2019-01-24T09:25:01.320Z,17.8
2019-01-24T09:30:01.249Z,18.5
2019-01-24T09:35:01.391Z,17.5
2019-01-24T09:40:01.256Z,18.6
2019-01-24T09:45:01.387Z,17.6
2019-01-24T09:50:01.272Z,17.9
2019-01-24T09:55:01.680Z,17.7
2019-01-24T10:00:01.279Z,18.3
2019-01-24T10:05:01.329Z,18.2
2019-01-24T10:10:01.270Z,19.7
2019-01-24T10:15:01.401Z,19.3
2019-01-24T10:20:01.266Z,19.9
2019-01-24T10:25:01.332Z,19.5
2019-01-24T10:30:01.269Z,19.4
2019-01-24T10:35:01.336Z,19.1
2019-01-24T10:40:02.283Z,19.9
2019-01-24T10:45:01.395Z,20.0
2019-01-24T10:50:01.278Z,20.3
2019-01-24T10:55:01.362Z,20.2
2019-01-24T11:00:01.299Z,21.0
2019-01-24T11:05:01.265Z,20.3
2019-01-24T11:10:01.271Z,19.2
2019-01-24T11:15:01.395Z,19.0
2019-01-24T11:20:01.271Z,20.1
2019-01-24T11:25:01.346Z,20.2
2019-01-24T11:30:01.344Z,21.9
2019-01-24T11:35:01.358Z,23.9
2019-01-24T11:40:01.276Z,24.8
2019-01-24T11:45:01.402Z,24.8
2019-01-24T11:50:01.245Z,24.5
2019-01-24T11:55:02.301Z,24.4
2019-01-24T12:00:01.278Z,22.6
2019-01-24T12:05:01.361Z,22.6
2019-01-24T12:10:01.278Z,24.1
2019-01-24T12:15:01.268Z,22.5
2019-01-24T12:20:01.270Z,22.6
2019-01-24T12:25:01.402Z,24.0
2019-01-24T12:30:02.294Z,24.0
2019-01-24T12:35:01.345Z,23.2
2019-01-24T12:40:01.314Z,23.4
2019-01-24T12:45:01.451Z,22.7
2019-01-24T12:50:01.303Z,23.0
2019-01-24T12:55:01.431Z,23.0
2019-01-24T13:00:01.307Z,23.1
2019-01-24T13:05:01.371Z,24.3
2019-01-24T13:10:01.314Z,24.6
2019-01-24T13:15:01.301Z,23.7
2019-01-24T13:20:01.320Z,23.1
2019-01-24T13:25:01.440Z,22.8
2019-01-24T13:30:01.316Z,22.6
2019-01-24T13:35:01.372Z,22.8
2019-01-24T13:40:01.325Z,22.6
2019-01-24T13:45:01.373Z,22.9
2019-01-24T13:50:01.319Z,21.5
2019-01-24T13:55:01.444Z,21.2
2019-01-24T14:00:01.349Z,19.8
2019-01-24T14:05:01.428Z,19.2
2019-01-24T14:10:01.230Z,20.0
2019-01-24T14:15:01.595Z,22.2
2019-01-24T14:20:01.240Z,24.2
2019-01-24T14:25:01.458Z,23.6
2019-01-24T14:30:01.284Z,23.9
2019-01-24T14:35:02.424Z,24.2
2019-01-24T14:40:01.290Z,23.3
2019-01-24T14:45:01.307Z,21.8
2019-01-24T14:51:01.271Z,23.2
2019-01-24T14:56:01.345Z,23.0
2019-01-24T15:01:01.275Z,23.2
2019-01-24T15:06:01.419Z,24.1
2019-01-24T15:11:01.278Z,24.0
2019-01-24T15:16:01.418Z,21.4
2019-01-24T15:21:01.315Z,21.5
2019-01-24T15:26:01.379Z,21.2
2019-01-24T15:31:01.335Z,20.5
2019-01-24T15:36:01.421Z,20.5
2019-01-24T15:41:01.297Z,22.1
2019-01-24T15:46:06.350Z,22.3
2019-01-24T15:51:01.298Z,23.0
2019-01-24T15:56:01.406Z,22.4
2019-01-24T16:01:02.284Z,22.6
2019-01-24T16:06:01.344Z,22.7
2019-01-24T16:11:01.280Z,22.3
2019-01-24T16:16:01.421Z,21.0
2019-01-24T16:22:01.339Z,21.7
2019-01-24T16:32:01.295Z,22.0
2019-01-24T16:37:01.332Z,21.9
2019-01-24T16:47:01.341Z,22.2
2019-01-24T16:52:01.281Z,21.8
2019-01-24T16:57:01.418Z,21.9
2019-01-24T17:02:01.271Z,21.8
2019-01-24T17:07:01.391Z,23.3
2019-01-24T17:12:01.291Z,23.1
2019-01-24T17:17:01.371Z,23.7
2019-01-24T17:22:01.283Z,23.3
2019-01-24T17:27:01.441Z,22.5
2019-01-24T17:32:01.308Z,21.6
2019-01-24T17:37:01.378Z,22.0
2019-01-24T17:42:01.485Z,22.3
2019-01-24T17:47:01.368Z,23.6
2019-01-24T17:52:01.324Z,23.3
2019-01-24T17:57:01.441Z,22.3
2019-01-24T18:02:01.310Z,22.9
2019-01-24T18:07:01.695Z,22.1
2019-01-24T18:12:01.287Z,22.1
2019-01-24T18:17:06.414Z,22.6
2019-01-24T18:23:01.269Z,22.5
2019-01-24T18:28:01.334Z,21.6
2019-01-24T18:33:01.263Z,21.3
2019-01-24T18:38:01.333Z,22.1
2019-01-24T18:43:01.287Z,21.6
2019-01-24T18:48:01.347Z,22.4
2019-01-24T18:53:01.401Z,22.1
2019-01-24T18:58:01.347Z,21.3
2019-01-24T19:08:01.342Z,20.7
2019-01-24T19:13:01.272Z,20.8
2019-01-24T19:18:01.422Z,22.1
2019-01-24T19:23:01.281Z,23.7
2019-01-24T19:28:01.353Z,23.8
2019-01-24T19:33:01.340Z,23.6
2019-01-24T19:38:01.425Z,22.3
2019-01-24T19:43:01.278Z,21.4
2019-01-24T19:48:01.411Z,21.2
2019-01-24T19:53:01.272Z,20.9
2019-01-24T19:58:01.340Z,20.6
2019-01-24T20:03:01.271Z,22.0
2019-01-24T20:08:01.345Z,22.3
2019-01-24T20:13:02.949Z,22.2
2019-01-24T20:18:01.401Z,23.2
2019-01-24T20:23:01.273Z,23.1
2019-01-24T20:28:01.391Z,22.8
2019-01-24T20:33:01.282Z,22.1
2019-01-24T20:38:02.292Z,22.6
2019-01-24T20:43:01.294Z,22.4
2019-01-24T20:48:01.332Z,22.1
2019-01-24T20:53:01.273Z,22.2
2019-01-24T20:58:01.391Z,22.0
2019-01-24T21:03:01.251Z,21.9
2019-01-24T21:08:01.344Z,23.1
2019-01-24T21:13:07.312Z,23.5
2019-01-24T21:18:01.438Z,22.4
2019-01-24T21:23:01.288Z,22.7
2019-01-24T21:28:01.398Z,22.2
2019-01-24T21:33:01.269Z,21.8
2019-01-24T21:38:01.402Z,23.1
2019-01-24T21:43:01.283Z,23.2
2019-01-24T21:48:01.340Z,23.1
2019-01-24T21:53:02.217Z,22.5
2019-01-24T21:58:01.410Z,22.3
2019-01-24T22:04:01.279Z,21.8
2019-01-24T22:09:01.301Z,21.4
2019-01-24T22:14:01.270Z,22.6
2019-01-24T22:19:01.269Z,22.3
2019-01-24T22:24:01.407Z,22.0
2019-01-24T22:29:01.285Z,22.3
2019-01-24T22:34:02.104Z,21.8
2019-01-24T22:39:01.239Z,20.9
2019-01-24T22:44:01.274Z,21.3
2019-01-24T22:49:06.284Z,22.5
2019-01-24T22:54:01.291Z,23.2
2019-01-24T22:59:01.295Z,24.5
2019-01-24T23:04:01.395Z,23.4
2019-01-24T23:09:01.277Z,22.8
2019-01-24T23:14:01.283Z,22.7
2019-01-24T23:19:01.278Z,22.0
2019-01-24T23:24:01.278Z,21.8
2019-01-24T23:29:01.280Z,23.2
2019-01-24T23:34:01.306Z,23.9
2019-01-24T23:39:01.287Z,23.6
2019-01-24T23:44:01.369Z,23.5
2019-01-24T23:49:01.355Z,22.5
2019-01-24T23:54:01.451Z,21.9
